sensor_id;sensor_type;location;lat;lon;timestamp;P1;durP1;ratioP1;P2;durP2;ratioP2
22160;SDS011;49035;48.812;11.762;2024-01-15T00:02:17;59.30;;;21.60;;
22160;SDS011;49035;48.812;11.762;2024-01-15T00:04:42;49.20;;;20.53;;
22160;SDS011;49035;48.812;11.762;2024-01-15T00:07:08;55.53;;;21.33;;
22160;SDS011;49035;48.812;11.762;2024-01-15T00:09:35;45.90;;;22.57;;
22160;SDS011;49035;48.812;11.762;2024-01-15T00:12:00;53.47;;;20.23;;
22160;SDS011;49035;48.812;11.762;2024-01-15T00:14:27;48.07;;;19.07;;
22160;SDS011;49035;48.812;11.762;2024-01-15T00:16:53;42.93;;;19.23;;
22160;SDS011;49035;48.812;11.762;2024-01-15T00:19:20;51.03;;;19.93;;
22160;SDS011;49035;48.812;11.762;2024-01-15T00:21:46;43.73;;;18.00;;
22160;SDS011;49035;48.812;11.762;2024-01-15T00:24:12;47.17;;;17.73;;
22160;SDS011;49035;48.812;11.762;2024-01-15T00:26:38;48.47;;;19.00;;
22160;SDS011;49035;48.812;11.762;2024-01-15T00:29:04;49.23;;;18.60;;
22160;SDS011;49035;48.812;11.762;2024-01-15T00:31:32;47.43;;;19.23;;
22160;SDS011;49035;48.812;11.762;2024-01-15T00:33:58;49.37;;;17.13;;
22160;SDS011;49035;48.812;11.762;2024-01-15T00:36:23;52.87;;;19.00;;
22160;SDS011;49035;48.812;11.762;2024-01-15T00:38:49;46.97;;;17.53;;
22160;SDS011;49035;48.812;11.762;2024-01-15T00:41:15;47.13;;;19.13;;
22160;SDS011;49035;48.812;11.762;2024-01-15T00:43:41;46.97;;;18.23;;
22160;SDS011;49035;48.812;11.762;2024-01-15T00:46:06;49.23;;;19.53;;
22160;SDS011;49035;48.812;11.762;2024-01-15T00:48:33;42.40;;;18.80;;
22160;SDS011;49035;48.812;11.762;2024-01-15T00:50:58;51.37;;;20.47;;
22160;SDS011;49035;48.812;11.762;2024-01-15T00:53:24;51.30;;;19.57;;
22160;SDS011;49035;48.812;11.762;2024-01-15T00:55:50;48.90;;;16.97;;
22160;SDS011;49035;48.812;11.762;2024-01-15T00:58:16;48.90;;;17.17;;
22160;SDS011;49035;48.812;11.762;2024-01-15T01:00:42;52.57;;;18.83;;
22160;SDS011;49035;48.812;11.762;2024-01-15T01:03:08;53.83;;;18.77;;
22160;SDS011;49035;48.812;11.762;2024-01-15T01:05:33;55.80;;;19.53;;
22160;SDS011;49035;48.812;11.762;2024-01-15T01:08:00;47.50;;;18.03;;
22160;SDS011;49035;48.812;11.762;2024-01-15T01:10:25;41.73;;;18.07;;
22160;SDS011;49035;48.812;11.762;2024-01-15T01:12:51;51.67;;;19.07;;
22160;SDS011;49035;48.812;11.762;2024-01-15T01:15:17;47.30;;;18.27;;
22160;SDS011;49035;48.812;11.762;2024-01-15T01:17:42;47.00;;;17.27;;
22160;SDS011;49035;48.812;11.762;2024-01-15T01:20:08;45.70;;;18.20;;
22160;SDS011;49035;48.812;11.762;2024-01-15T01:22:35;47.23;;;17.00;;
22160;SDS011;49035;48.812;11.762;2024-01-15T01:25:01;43.03;;;17.07;;
22160;SDS011;49035;48.812;11.762;2024-01-15T01:27:26;55.60;;;18.37;;
22160;SDS011;49035;48.812;11.762;2024-01-15T01:29:52;48.87;;;17.03;;
22160;SDS011;49035;48.812;11.762;2024-01-15T01:32:18;40.87;;;16.67;;
22160;SDS011;49035;48.812;11.762;2024-01-15T01:34:43;37.73;;;14.57;;
22160;SDS011;49035;48.812;11.762;2024-01-15T01:37:09;47.07;;;16.63;;
22160;SDS011;49035;48.812;11.762;2024-01-15T01:39:38;44.63;;;15.60;;
22160;SDS011;49035;48.812;11.762;2024-01-15T01:42:04;37.70;;;15.00;;
22160;SDS011;49035;48.812;11.762;2024-01-15T01:44:30;49.30;;;15.43;;
22160;SDS011;49035;48.812;11.762;2024-01-15T01:46:56;35.33;;;14.30;;
22160;SDS011;49035;48.812;11.762;2024-01-15T01:49:23;36.53;;;14.83;;
22160;SDS011;49035;48.812;11.762;2024-01-15T01:51:50;39.23;;;14.93;;
22160;SDS011;49035;48.812;11.762;2024-01-15T01:54:16;35.13;;;14.63;;
22160;SDS011;49035;48.812;11.762;2024-01-15T01:56:43;37.10;;;13.83;;
22160;SDS011;49035;48.812;11.762;2024-01-15T01:59:09;35.10;;;14.13;;
22160;SDS011;49035;48.812;11.762;2024-01-15T02:01:36;41.67;;;13.73;;
22160;SDS011;49035;48.812;11.762;2024-01-15T02:04:03;46.03;;;14.50;;
22160;SDS011;49035;48.812;11.762;2024-01-15T02:06:29;40.10;;;13.60;;
22160;SDS011;49035;48.812;11.762;2024-01-15T02:08:55;34.53;;;14.10;;
22160;SDS011;49035;48.812;11.762;2024-01-15T02:11:21;39.50;;;13.23;;
22160;SDS011;49035;48.812;11.762;2024-01-15T02:13:46;37.80;;;14.43;;
22160;SDS011;49035;48.812;11.762;2024-01-15T02:16:12;30.77;;;12.17;;
22160;SDS011;49035;48.812;11.762;2024-01-15T02:18:44;33.07;;;12.80;;
22160;SDS011;49035;48.812;11.762;2024-01-15T02:21:11;35.80;;;12.77;;
22160;SDS011;49035;48.812;11.762;2024-01-15T02:23:37;29.63;;;12.63;;
22160;SDS011;49035;48.812;11.762;2024-01-15T02:26:04;33.90;;;11.63;;
22160;SDS011;49035;48.812;11.762;2024-01-15T02:28:30;36.37;;;12.93;;
22160;SDS011;49035;48.812;11.762;2024-01-15T02:30:57;32.90;;;11.93;;
22160;SDS011;49035;48.812;11.762;2024-01-15T02:33:22;35.47;;;13.13;;
22160;SDS011;49035;48.812;11.762;2024-01-15T02:35:48;31.67;;;12.57;;
22160;SDS011;49035;48.812;11.762;2024-01-15T02:38:16;30.77;;;11.83;;
22160;SDS011;49035;48.812;11.762;2024-01-15T02:40:43;23.33;;;11.43;;
22160;SDS011;49035;48.812;11.762;2024-01-15T02:43:09;27.20;;;12.67;;
22160;SDS011;49035;48.812;11.762;2024-01-15T02:45:35;31.63;;;11.67;;
22160;SDS011;49035;48.812;11.762;2024-01-15T02:48:01;29.60;;;11.20;;
22160;SDS011;49035;48.812;11.762;2024-01-15T02:50:27;30.53;;;11.83;;
22160;SDS011;49035;48.812;11.762;2024-01-15T02:52:52;26.70;;;10.67;;
22160;SDS011;49035;48.812;11.762;2024-01-15T02:55:18;33.73;;;11.60;;
22160;SDS011;49035;48.812;11.762;2024-01-15T02:57:44;30.47;;;10.80;;
22160;SDS011;49035;48.812;11.762;2024-01-15T03:00:09;27.90;;;11.60;;
22160;SDS011;49035;48.812;11.762;2024-01-15T03:02:36;30.93;;;11.93;;
22160;SDS011;49035;48.812;11.762;2024-01-15T03:05:05;31.90;;;11.30;;
22160;SDS011;49035;48.812;11.762;2024-01-15T03:07:32;25.97;;;10.77;;
22160;SDS011;49035;48.812;11.762;2024-01-15T03:09:57;27.40;;;10.60;;
22160;SDS011;49035;48.812;11.762;2024-01-15T03:12:23;27.33;;;10.77;;
22160;SDS011;49035;48.812;11.762;2024-01-15T03:14:48;28.47;;;10.00;;
22160;SDS011;49035;48.812;11.762;2024-01-15T03:17:14;29.53;;;11.57;;
22160;SDS011;49035;48.812;11.762;2024-01-15T03:19:39;35.03;;;13.67;;
22160;SDS011;49035;48.812;11.762;2024-01-15T03:22:05;35.57;;;13.60;;
22160;SDS011;49035;48.812;11.762;2024-01-15T03:24:33;38.23;;;13.70;;
22160;SDS011;49035;48.812;11.762;2024-01-15T03:26:58;30.83;;;13.93;;
22160;SDS011;49035;48.812;11.762;2024-01-15T03:29:25;31.47;;;13.80;;
22160;SDS011;49035;48.812;11.762;2024-01-15T03:31:51;28.57;;;13.70;;
22160;SDS011;49035;48.812;11.762;2024-01-15T03:34:17;31.43;;;13.00;;
22160;SDS011;49035;48.812;11.762;2024-01-15T03:36:42;34.10;;;14.20;;
22160;SDS011;49035;48.812;11.762;2024-01-15T03:39:08;37.17;;;14.97;;
22160;SDS011;49035;48.812;11.762;2024-01-15T03:41:33;36.20;;;16.17;;
22160;SDS011;49035;48.812;11.762;2024-01-15T03:43:59;40.27;;;15.27;;
22160;SDS011;49035;48.812;11.762;2024-01-15T03:46:25;36.20;;;13.03;;
22160;SDS011;49035;48.812;11.762;2024-01-15T03:48:50;32.37;;;14.13;;
22160;SDS011;49035;48.812;11.762;2024-01-15T03:51:19;33.20;;;13.50;;
22160;SDS011;49035;48.812;11.762;2024-01-15T03:53:45;37.23;;;13.17;;
22160;SDS011;49035;48.812;11.762;2024-01-15T03:56:11;35.30;;;15.13;;
22160;SDS011;49035;48.812;11.762;2024-01-15T03:58:37;29.13;;;12.10;;
22160;SDS011;49035;48.812;11.762;2024-01-15T04:01:02;36.73;;;13.50;;
22160;SDS011;49035;48.812;11.762;2024-01-15T04:03:28;28.37;;;12.77;;
22160;SDS011;49035;48.812;11.762;2024-01-15T04:05:54;32.77;;;13.57;;
22160;SDS011;49035;48.812;11.762;2024-01-15T04:08:19;40.63;;;14.67;;
22160;SDS011;49035;48.812;11.762;2024-01-15T04:10:45;38.20;;;13.90;;
22160;SDS011;49035;48.812;11.762;2024-01-15T04:13:10;36.00;;;14.63;;
22160;SDS011;49035;48.812;11.762;2024-01-15T04:15:36;32.90;;;13.73;;
22160;SDS011;49035;48.812;11.762;2024-01-15T04:18:02;39.10;;;13.07;;
22160;SDS011;49035;48.812;11.762;2024-01-15T04:20:28;33.10;;;13.27;;
22160;SDS011;49035;48.812;11.762;2024-01-15T04:22:54;30.13;;;11.80;;
22160;SDS011;49035;48.812;11.762;2024-01-15T04:25:20;31.40;;;11.80;;
22160;SDS011;49035;48.812;11.762;2024-01-15T04:27:45;32.73;;;12.20;;
22160;SDS011;49035;48.812;11.762;2024-01-15T04:30:11;28.63;;;12.80;;
22160;SDS011;49035;48.812;11.762;2024-01-15T04:32:37;23.53;;;10.70;;
22160;SDS011;49035;48.812;11.762;2024-01-15T04:35:02;26.57;;;11.53;;
22160;SDS011;49035;48.812;11.762;2024-01-15T04:37:28;27.33;;;11.93;;
22160;SDS011;49035;48.812;11.762;2024-01-15T04:39:55;28.83;;;11.17;;
22160;SDS011;49035;48.812;11.762;2024-01-15T04:42:22;29.67;;;11.87;;
22160;SDS011;49035;48.812;11.762;2024-01-15T04:44:48;27.13;;;11.43;;
22160;SDS011;49035;48.812;11.762;2024-01-15T04:47:14;29.10;;;11.63;;
22160;SDS011;49035;48.812;11.762;2024-01-15T04:49:39;30.47;;;12.57;;
22160;SDS011;49035;48.812;11.762;2024-01-15T04:52:05;28.47;;;11.43;;
22160;SDS011;49035;48.812;11.762;2024-01-15T04:54:31;27.27;;;10.77;;
22160;SDS011;49035;48.812;11.762;2024-01-15T04:56:56;23.07;;;10.60;;
22160;SDS011;49035;48.812;11.762;2024-01-15T04:59:22;24.50;;;10.83;;
22160;SDS011;49035;48.812;11.762;2024-01-15T05:01:48;28.10;;;10.07;;
22160;SDS011;49035;48.812;11.762;2024-01-15T05:04:14;20.07;;;10.20;;
22160;SDS011;49035;48.812;11.762;2024-01-15T05:06:39;23.10;;;9.80;;
22160;SDS011;49035;48.812;11.762;2024-01-15T05:09:05;27.27;;;9.40;;
22160;SDS011;49035;48.812;11.762;2024-01-15T05:11:31;25.43;;;9.60;;
22160;SDS011;49035;48.812;11.762;2024-01-15T05:13:56;20.03;;;9.27;;
22160;SDS011;49035;48.812;11.762;2024-01-15T05:16:22;19.87;;;8.60;;
22160;SDS011;49035;48.812;11.762;2024-01-15T05:18:47;23.97;;;9.57;;
22160;SDS011;49035;48.812;11.762;2024-01-15T05:21:13;23.33;;;10.20;;
22160;SDS011;49035;48.812;11.762;2024-01-15T05:23:39;20.77;;;9.13;;
22160;SDS011;49035;48.812;11.762;2024-01-15T05:26:04;21.90;;;9.33;;
22160;SDS011;49035;48.812;11.762;2024-01-15T05:28:30;20.23;;;9.27;;
22160;SDS011;49035;48.812;11.762;2024-01-15T05:30:55;23.93;;;9.23;;
22160;SDS011;49035;48.812;11.762;2024-01-15T05:33:24;20.80;;;7.77;;
22160;SDS011;49035;48.812;11.762;2024-01-15T05:35:49;19.27;;;8.73;;
22160;SDS011;49035;48.812;11.762;2024-01-15T05:38:15;16.60;;;7.73;;
22160;SDS011;49035;48.812;11.762;2024-01-15T05:40:42;18.60;;;7.60;;
22160;SDS011;49035;48.812;11.762;2024-01-15T05:43:07;18.60;;;8.53;;
22160;SDS011;49035;48.812;11.762;2024-01-15T05:45:34;20.10;;;7.97;;
22160;SDS011;49035;48.812;11.762;2024-01-15T05:48:00;19.43;;;8.90;;
22160;SDS011;49035;48.812;11.762;2024-01-15T05:50:26;20.67;;;7.37;;
22160;SDS011;49035;48.812;11.762;2024-01-15T05:52:52;17.07;;;8.03;;
22160;SDS011;49035;48.812;11.762;2024-01-15T05:55:18;16.67;;;6.77;;
22160;SDS011;49035;48.812;11.762;2024-01-15T05:57:43;17.53;;;7.47;;
22160;SDS011;49035;48.812;11.762;2024-01-15T06:00:10;17.50;;;6.80;;
22160;SDS011;49035;48.812;11.762;2024-01-15T06:02:38;13.80;;;6.63;;
22160;SDS011;49035;48.812;11.762;2024-01-15T06:05:04;17.50;;;7.53;;
22160;SDS011;49035;48.812;11.762;2024-01-15T06:07:31;13.37;;;6.50;;
22160;SDS011;49035;48.812;11.762;2024-01-15T06:09:57;13.83;;;6.47;;
22160;SDS011;49035;48.812;11.762;2024-01-15T06:12:23;15.17;;;6.80;;
22160;SDS011;49035;48.812;11.762;2024-01-15T06:14:48;16.90;;;6.93;;
22160;SDS011;49035;48.812;11.762;2024-01-15T06:17:14;12.03;;;6.00;;
22160;SDS011;49035;48.812;11.762;2024-01-15T06:19:39;13.10;;;6.27;;
22160;SDS011;49035;48.812;11.762;2024-01-15T06:22:05;13.43;;;6.23;;
22160;SDS011;49035;48.812;11.762;2024-01-15T06:24:30;17.63;;;6.70;;
22160;SDS011;49035;48.812;11.762;2024-01-15T06:26:56;13.80;;;6.27;;
22160;SDS011;49035;48.812;11.762;2024-01-15T06:29:22;15.30;;;6.90;;
22160;SDS011;49035;48.812;11.762;2024-01-15T06:31:50;14.23;;;6.57;;
22160;SDS011;49035;48.812;11.762;2024-01-15T06:34:15;16.13;;;6.87;;
22160;SDS011;49035;48.812;11.762;2024-01-15T06:36:41;10.17;;;5.60;;
22160;SDS011;49035;48.812;11.762;2024-01-15T06:39:07;14.13;;;5.63;;
22160;SDS011;49035;48.812;11.762;2024-01-15T06:41:32;13.60;;;6.30;;
22160;SDS011;49035;48.812;11.762;2024-01-15T06:43:58;14.87;;;6.40;;
22160;SDS011;49035;48.812;11.762;2024-01-15T06:46:23;12.63;;;6.03;;
22160;SDS011;49035;48.812;11.762;2024-01-15T06:48:49;13.93;;;6.20;;
22160;SDS011;49035;48.812;11.762;2024-01-15T06:51:15;13.13;;;6.17;;
22160;SDS011;49035;48.812;11.762;2024-01-15T06:53:41;14.60;;;5.77;;
22160;SDS011;49035;48.812;11.762;2024-01-15T06:56:07;12.33;;;5.10;;
22160;SDS011;49035;48.812;11.762;2024-01-15T06:58:32;13.70;;;6.00;;
22160;SDS011;49035;48.812;11.762;2024-01-15T07:00:58;12.30;;;5.63;;
22160;SDS011;49035;48.812;11.762;2024-01-15T07:03:24;11.13;;;5.97;;
22160;SDS011;49035;48.812;11.762;2024-01-15T07:05:50;11.77;;;5.23;;
22160;SDS011;49035;48.812;11.762;2024-01-15T07:08:19;14.50;;;5.97;;
22160;SDS011;49035;48.812;11.762;2024-01-15T07:10:45;13.70;;;5.67;;
22160;SDS011;49035;48.812;11.762;2024-01-15T07:13:11;12.10;;;5.47;;
22160;SDS011;49035;48.812;11.762;2024-01-15T07:15:36;11.50;;;6.10;;
22160;SDS011;49035;48.812;11.762;2024-01-15T07:18:02;12.97;;;5.20;;
22160;SDS011;49035;48.812;11.762;2024-01-15T07:20:27;10.83;;;5.60;;
22160;SDS011;49035;48.812;11.762;2024-01-15T07:22:53;11.17;;;5.90;;
22160;SDS011;49035;48.812;11.762;2024-01-15T07:25:19;10.93;;;5.60;;
22160;SDS011;49035;48.812;11.762;2024-01-15T07:27:44;11.23;;;6.07;;
22160;SDS011;49035;48.812;11.762;2024-01-15T07:30:11;18.33;;;6.83;;
22160;SDS011;49035;48.812;11.762;2024-01-15T07:32:37;11.37;;;5.43;;
22160;SDS011;49035;48.812;11.762;2024-01-15T07:35:03;12.53;;;6.20;;
22160;SDS011;49035;48.812;11.762;2024-01-15T07:37:29;16.10;;;6.77;;
22160;SDS011;49035;48.812;11.762;2024-01-15T07:39:55;11.80;;;5.93;;
22160;SDS011;49035;48.812;11.762;2024-01-15T07:42:20;15.00;;;6.47;;
22160;SDS011;49035;48.812;11.762;2024-01-15T07:44:46;15.80;;;6.40;;
22160;SDS011;49035;48.812;11.762;2024-01-15T07:47:12;13.23;;;6.30;;
22160;SDS011;49035;48.812;11.762;2024-01-15T07:49:37;12.50;;;5.23;;
22160;SDS011;49035;48.812;11.762;2024-01-15T07:52:03;14.10;;;5.87;;
22160;SDS011;49035;48.812;11.762;2024-01-15T07:54:30;14.33;;;6.43;;
22160;SDS011;49035;48.812;11.762;2024-01-15T07:56:56;13.87;;;5.53;;
22160;SDS011;49035;48.812;11.762;2024-01-15T07:59:23;9.77;;;5.50;;
22160;SDS011;49035;48.812;11.762;2024-01-15T08:01:49;11.87;;;5.83;;
22160;SDS011;49035;48.812;11.762;2024-01-15T08:04:15;9.97;;;5.47;;
22160;SDS011;49035;48.812;11.762;2024-01-15T08:06:41;12.13;;;5.77;;
22160;SDS011;49035;48.812;11.762;2024-01-15T08:09:06;14.03;;;6.00;;
22160;SDS011;49035;48.812;11.762;2024-01-15T08:11:33;10.70;;;5.37;;
22160;SDS011;49035;48.812;11.762;2024-01-15T08:13:59;10.47;;;5.67;;
22160;SDS011;49035;48.812;11.762;2024-01-15T08:16:25;11.67;;;5.53;;
22160;SDS011;49035;48.812;11.762;2024-01-15T08:18:50;10.57;;;5.77;;
22160;SDS011;49035;48.812;11.762;2024-01-15T08:21:16;13.57;;;5.47;;
22160;SDS011;49035;48.812;11.762;2024-01-15T08:23:41;11.60;;;5.63;;
22160;SDS011;49035;48.812;11.762;2024-01-15T08:26:07;12.10;;;6.23;;
22160;SDS011;49035;48.812;11.762;2024-01-15T08:28:34;11.60;;;6.10;;
22160;SDS011;49035;48.812;11.762;2024-01-15T08:30:59;10.97;;;5.70;;
22160;SDS011;49035;48.812;11.762;2024-01-15T08:36:15;10.43;;;5.57;;
22160;SDS011;49035;48.812;11.762;2024-01-15T08:38:54;11.87;;;5.23;;
22160;SDS011;49035;48.812;11.762;2024-01-15T08:41:31;10.67;;;5.63;;
22160;SDS011;49035;48.812;11.762;2024-01-15T08:44:05;10.93;;;5.83;;
22160;SDS011;49035;48.812;11.762;2024-01-15T08:49:39;11.27;;;5.90;;
22160;SDS011;49035;48.812;11.762;2024-01-15T08:52:05;15.63;;;6.70;;
22160;SDS011;49035;48.812;11.762;2024-01-15T08:54:36;14.13;;;6.60;;
22160;SDS011;49035;48.812;11.762;2024-01-15T08:57:05;12.00;;;6.13;;
22160;SDS011;49035;48.812;11.762;2024-01-15T08:59:36;13.53;;;5.83;;
22160;SDS011;49035;48.812;11.762;2024-01-15T09:02:06;11.87;;;5.77;;
22160;SDS011;49035;48.812;11.762;2024-01-15T09:04:42;14.20;;;6.37;;
22160;SDS011;49035;48.812;11.762;2024-01-15T09:07:15;10.97;;;5.73;;
22160;SDS011;49035;48.812;11.762;2024-01-15T09:09:41;12.03;;;5.57;;
22160;SDS011;49035;48.812;11.762;2024-01-15T09:12:07;12.50;;;6.03;;
22160;SDS011;49035;48.812;11.762;2024-01-15T09:14:39;13.30;;;5.87;;
22160;SDS011;49035;48.812;11.762;2024-01-15T09:17:20;15.27;;;6.83;;
22160;SDS011;49035;48.812;11.762;2024-01-15T09:19:54;11.77;;;6.37;;
22160;SDS011;49035;48.812;11.762;2024-01-15T09:22:32;12.80;;;6.13;;
22160;SDS011;49035;48.812;11.762;2024-01-15T09:25:01;10.50;;;4.70;;
22160;SDS011;49035;48.812;11.762;2024-01-15T09:27:30;10.67;;;5.70;;
22160;SDS011;49035;48.812;11.762;2024-01-15T09:32:40;10.63;;;5.23;;
22160;SDS011;49035;48.812;11.762;2024-01-15T09:35:06;11.67;;;5.50;;
22160;SDS011;49035;48.812;11.762;2024-01-15T09:37:32;8.63;;;5.30;;
22160;SDS011;49035;48.812;11.762;2024-01-15T09:40:00;8.97;;;4.13;;
22160;SDS011;49035;48.812;11.762;2024-01-15T09:42:33;12.47;;;5.00;;
22160;SDS011;49035;48.812;11.762;2024-01-15T09:45:03;9.00;;;4.53;;
22160;SDS011;49035;48.812;11.762;2024-01-15T09:47:34;8.63;;;4.57;;
22160;SDS011;49035;48.812;11.762;2024-01-15T09:50:04;9.87;;;4.50;;
22160;SDS011;49035;48.812;11.762;2024-01-15T09:52:36;14.67;;;6.20;;
22160;SDS011;49035;48.812;11.762;2024-01-15T09:55:19;11.70;;;5.00;;
22160;SDS011;49035;48.812;11.762;2024-01-15T09:57:46;13.97;;;5.83;;
22160;SDS011;49035;48.812;11.762;2024-01-15T10:00:12;6.83;;;4.40;;
22160;SDS011;49035;48.812;11.762;2024-01-15T10:02:41;7.13;;;4.00;;
22160;SDS011;49035;48.812;11.762;2024-01-15T10:05:10;7.80;;;4.47;;
22160;SDS011;49035;48.812;11.762;2024-01-15T10:07:36;8.17;;;4.43;;
22160;SDS011;49035;48.812;11.762;2024-01-15T10:10:03;8.00;;;4.23;;
22160;SDS011;49035;48.812;11.762;2024-01-15T10:12:29;7.00;;;3.87;;
22160;SDS011;49035;48.812;11.762;2024-01-15T10:14:55;9.07;;;4.40;;
22160;SDS011;49035;48.812;11.762;2024-01-15T10:17:21;13.60;;;5.43;;
22160;SDS011;49035;48.812;11.762;2024-01-15T10:19:47;10.97;;;4.00;;
22160;SDS011;49035;48.812;11.762;2024-01-15T10:22:13;9.57;;;4.07;;
22160;SDS011;49035;48.812;11.762;2024-01-15T10:24:40;7.67;;;4.33;;
22160;SDS011;49035;48.812;11.762;2024-01-15T10:27:10;9.17;;;4.30;;
22160;SDS011;49035;48.812;11.762;2024-01-15T10:29:36;8.97;;;3.87;;
22160;SDS011;49035;48.812;11.762;2024-01-15T10:32:08;7.37;;;4.00;;
22160;SDS011;49035;48.812;11.762;2024-01-15T10:34:37;7.87;;;3.80;;
22160;SDS011;49035;48.812;11.762;2024-01-15T10:37:04;6.53;;;4.13;;
22160;SDS011;49035;48.812;11.762;2024-01-15T10:39:29;11.60;;;5.93;;
22160;SDS011;49035;48.812;11.762;2024-01-15T10:41:55;8.73;;;4.23;;
22160;SDS011;49035;48.812;11.762;2024-01-15T10:44:21;7.20;;;4.17;;
22160;SDS011;49035;48.812;11.762;2024-01-15T10:46:46;7.00;;;3.83;;
22160;SDS011;49035;48.812;11.762;2024-01-15T10:49:12;7.90;;;3.93;;
22160;SDS011;49035;48.812;11.762;2024-01-15T10:51:38;35.77;;;14.53;;
22160;SDS011;49035;48.812;11.762;2024-01-15T10:54:06;8.33;;;4.10;;
22160;SDS011;49035;48.812;11.762;2024-01-15T10:56:36;8.10;;;4.83;;
22160;SDS011;49035;48.812;11.762;2024-01-15T10:59:02;7.70;;;4.33;;
22160;SDS011;49035;48.812;11.762;2024-01-15T11:01:29;7.27;;;3.50;;
22160;SDS011;49035;48.812;11.762;2024-01-15T11:03:55;9.30;;;4.17;;
22160;SDS011;49035;48.812;11.762;2024-01-15T11:06:23;6.97;;;3.77;;
22160;SDS011;49035;48.812;11.762;2024-01-15T11:08:50;7.93;;;3.77;;
22160;SDS011;49035;48.812;11.762;2024-01-15T11:11:17;5.97;;;3.70;;
22160;SDS011;49035;48.812;11.762;2024-01-15T11:13:43;7.60;;;4.00;;
22160;SDS011;49035;48.812;11.762;2024-01-15T11:16:12;7.30;;;3.80;;
22160;SDS011;49035;48.812;11.762;2024-01-15T11:18:43;10.23;;;5.17;;
22160;SDS011;49035;48.812;11.762;2024-01-15T11:21:26;8.40;;;4.60;;
22160;SDS011;49035;48.812;11.762;2024-01-15T11:23:55;9.67;;;4.97;;
22160;SDS011;49035;48.812;11.762;2024-01-15T11:29:06;9.27;;;4.57;;
22160;SDS011;49035;48.812;11.762;2024-01-15T11:34:08;11.47;;;4.30;;
22160;SDS011;49035;48.812;11.762;2024-01-15T11:39:40;7.10;;;3.50;;
22160;SDS011;49035;48.812;11.762;2024-01-15T11:42:05;7.13;;;3.67;;
22160;SDS011;49035;48.812;11.762;2024-01-15T11:44:30;6.33;;;3.73;;
22160;SDS011;49035;48.812;11.762;2024-01-15T11:52:33;8.40;;;4.43;;
22160;SDS011;49035;48.812;11.762;2024-01-15T11:55:19;11.00;;;4.33;;
22160;SDS011;49035;48.812;11.762;2024-01-15T11:57:53;7.63;;;4.30;;
22160;SDS011;49035;48.812;11.762;2024-01-15T12:00:20;6.60;;;4.00;;
22160;SDS011;49035;48.812;11.762;2024-01-15T12:02:47;5.50;;;3.67;;
22160;SDS011;49035;48.812;11.762;2024-01-15T12:05:14;6.13;;;4.03;;
22160;SDS011;49035;48.812;11.762;2024-01-15T12:07:44;6.70;;;4.10;;
22160;SDS011;49035;48.812;11.762;2024-01-15T12:10:11;10.53;;;5.53;;
22160;SDS011;49035;48.812;11.762;2024-01-15T12:15:20;6.70;;;4.13;;
22160;SDS011;49035;48.812;11.762;2024-01-15T12:17:46;7.90;;;4.10;;
22160;SDS011;49035;48.812;11.762;2024-01-15T12:20:12;14.27;;;4.47;;
22160;SDS011;49035;48.812;11.762;2024-01-15T12:22:38;7.73;;;4.40;;
22160;SDS011;49035;48.812;11.762;2024-01-15T12:25:05;9.37;;;4.53;;
22160;SDS011;49035;48.812;11.762;2024-01-15T12:27:30;10.70;;;4.00;;
22160;SDS011;49035;48.812;11.762;2024-01-15T12:29:57;8.03;;;3.93;;
22160;SDS011;49035;48.812;11.762;2024-01-15T12:32:23;6.30;;;3.77;;
22160;SDS011;49035;48.812;11.762;2024-01-15T12:34:49;7.00;;;4.43;;
22160;SDS011;49035;48.812;11.762;2024-01-15T12:37:17;9.20;;;4.33;;
22160;SDS011;49035;48.812;11.762;2024-01-15T12:39:44;8.47;;;4.60;;
22160;SDS011;49035;48.812;11.762;2024-01-15T12:42:10;8.50;;;4.40;;
22160;SDS011;49035;48.812;11.762;2024-01-15T12:44:35;8.63;;;5.00;;
22160;SDS011;49035;48.812;11.762;2024-01-15T12:47:03;12.53;;;5.77;;
22160;SDS011;49035;48.812;11.762;2024-01-15T12:49:29;8.30;;;4.10;;
22160;SDS011;49035;48.812;11.762;2024-01-15T12:51:58;7.17;;;4.43;;
22160;SDS011;49035;48.812;11.762;2024-01-15T12:54:24;11.10;;;4.87;;
22160;SDS011;49035;48.812;11.762;2024-01-15T12:56:51;11.00;;;4.27;;
22160;SDS011;49035;48.812;11.762;2024-01-15T12:59:17;6.57;;;3.17;;
22160;SDS011;49035;48.812;11.762;2024-01-15T13:01:43;9.33;;;4.27;;
22160;SDS011;49035;48.812;11.762;2024-01-15T13:04:10;10.33;;;4.07;;
22160;SDS011;49035;48.812;11.762;2024-01-15T13:06:36;11.43;;;5.37;;
22160;SDS011;49035;48.812;11.762;2024-01-15T13:09:04;12.93;;;5.47;;
22160;SDS011;49035;48.812;11.762;2024-01-15T13:11:31;7.63;;;3.67;;
22160;SDS011;49035;48.812;11.762;2024-01-15T13:13:57;11.23;;;4.73;;
22160;SDS011;49035;48.812;11.762;2024-01-15T13:16:23;7.50;;;3.53;;
22160;SDS011;49035;48.812;11.762;2024-01-15T13:18:51;11.60;;;4.00;;
22160;SDS011;49035;48.812;11.762;2024-01-15T13:21:17;9.90;;;4.10;;
22160;SDS011;49035;48.812;11.762;2024-01-15T13:23:43;4.80;;;3.20;;
22160;SDS011;49035;48.812;11.762;2024-01-15T13:26:09;5.53;;;2.93;;
22160;SDS011;49035;48.812;11.762;2024-01-15T13:28:34;6.17;;;3.73;;
22160;SDS011;49035;48.812;11.762;2024-01-15T13:31:00;5.77;;;3.10;;
22160;SDS011;49035;48.812;11.762;2024-01-15T13:33:26;7.47;;;3.90;;
22160;SDS011;49035;48.812;11.762;2024-01-15T13:35:51;3.73;;;3.03;;
22160;SDS011;49035;48.812;11.762;2024-01-15T13:38:17;6.63;;;3.83;;
22160;SDS011;49035;48.812;11.762;2024-01-15T13:40:46;6.40;;;3.43;;
22160;SDS011;49035;48.812;11.762;2024-01-15T13:43:12;6.83;;;3.47;;
22160;SDS011;49035;48.812;11.762;2024-01-15T13:45:39;6.77;;;3.40;;
22160;SDS011;49035;48.812;11.762;2024-01-15T13:48:06;7.57;;;4.17;;
22160;SDS011;49035;48.812;11.762;2024-01-15T13:50:33;8.27;;;3.27;;
22160;SDS011;49035;48.812;11.762;2024-01-15T13:53:00;5.63;;;3.27;;
22160;SDS011;49035;48.812;11.762;2024-01-15T13:55:25;5.67;;;3.47;;
22160;SDS011;49035;48.812;11.762;2024-01-15T13:57:51;5.47;;;3.57;;
22160;SDS011;49035;48.812;11.762;2024-01-15T14:00:17;7.07;;;3.97;;
22160;SDS011;49035;48.812;11.762;2024-01-15T14:02:45;8.90;;;4.27;;
22160;SDS011;49035;48.812;11.762;2024-01-15T14:05:11;7.13;;;4.57;;
22160;SDS011;49035;48.812;11.762;2024-01-15T14:07:38;7.93;;;4.43;;
22160;SDS011;49035;48.812;11.762;2024-01-15T14:10:04;8.43;;;4.60;;
22160;SDS011;49035;48.812;11.762;2024-01-15T14:12:33;9.43;;;4.83;;
22160;SDS011;49035;48.812;11.762;2024-01-15T14:14:58;10.27;;;4.77;;
22160;SDS011;49035;48.812;11.762;2024-01-15T14:17:24;10.87;;;5.23;;
22160;SDS011;49035;48.812;11.762;2024-01-15T14:19:50;10.33;;;5.60;;
22160;SDS011;49035;48.812;11.762;2024-01-15T14:22:16;12.90;;;5.43;;
22160;SDS011;49035;48.812;11.762;2024-01-15T14:24:41;7.97;;;4.50;;
22160;SDS011;49035;48.812;11.762;2024-01-15T14:27:07;11.23;;;5.43;;
22160;SDS011;49035;48.812;11.762;2024-01-15T14:29:33;8.93;;;5.20;;
22160;SDS011;49035;48.812;11.762;2024-01-15T14:31:58;11.00;;;6.70;;
22160;SDS011;49035;48.812;11.762;2024-01-15T14:34:24;16.73;;;7.40;;
22160;SDS011;49035;48.812;11.762;2024-01-15T14:36:51;10.90;;;6.70;;
22160;SDS011;49035;48.812;11.762;2024-01-15T14:39:20;14.13;;;8.03;;
22160;SDS011;49035;48.812;11.762;2024-01-15T14:41:46;16.87;;;8.90;;
22160;SDS011;49035;48.812;11.762;2024-01-15T14:44:12;17.03;;;8.17;;